Time;durP1;ratioP1;P1;durP2;ratioP2;P2;SDS_P1;SDS_P2;PMS_P1;PMS_P2;Temp;Humidity;BMP_temperature;BMP_pressure;BME280_temperature;BME280_humidity;BME280_pressure;Samples;Min_cycle;Max_cycle;Signal;HPM_P1;HPM_P2
2023/08/16 00:00:07;;;;;;;5.53;2.15;;;24.60;86.10;;;;;;5073230;28;20053;-69
2023/08/16 00:02:33;;;;;;;4.82;2.42;;;24.50;85.50;;;;;;5064369;28;20393;-70
2023/08/16 00:04:59;;;;;;;4.53;2.13;;;24.80;86.10;;;;;;5051367;28;20127;-68
2023/08/16 00:07:25;;;;;;;7.38;2.40;;;24.50;85.80;;;;;;5047507;28;20039;-68
2023/08/16 00:09:51;;;;;;;5.00;2.03;;;24.50;85.90;;;;;;5042617;28;20399;-68
2023/08/16 00:12:17;;;;;;;3.63;2.00;;;24.70;86.20;;;;;;5050471;28;20048;-72
2023/08/16 00:14:42;;;;;;;3.92;2.00;;;24.60;86.00;;;;;;5034466;28;20530;-73
2023/08/16 00:17:08;;;;;;;4.95;2.20;;;24.60;85.80;;;;;;5051247;28;20059;-67
2023/08/16 00:19:34;;;;;;;4.63;2.05;;;24.50;85.90;;;;;;5049518;28;20044;-71
2023/08/16 00:22:00;;;;;;;5.55;2.08;;;24.60;86.00;;;;;;5066417;28;20079;-70
2023/08/16 00:24:25;;;;;;;5.50;2.25;;;24.70;86.10;;;;;;5052801;28;20041;-65
2023/08/16 00:26:51;;;;;;;4.30;2.03;;;24.60;85.90;;;;;;5033876;28;20041;-64
2023/08/16 00:29:17;;;;;;;4.05;1.73;;;24.70;86.00;;;;;;5032941;28;20411;-70
2023/08/16 00:31:43;;;;;;;5.57;2.00;;;24.50;85.80;;;;;;5054505;28;20045;-68
2023/08/16 00:34:08;;;;;;;4.22;1.90;;;24.60;85.90;;;;;;5049534;28;20066;-67
2023/08/16 00:36:34;;;;;;;4.53;2.03;;;24.40;85.80;;;;;;5072671;28;20133;-69
2023/08/16 00:39:00;;;;;;;3.80;1.90;;;24.60;85.80;;;;;;5054530;28;20044;-62
2023/08/16 00:41:26;;;;;;;4.10;2.13;;;24.60;86.00;;;;;;5064231;28;20033;-69
2023/08/16 00:43:52;;;;;;;5.05;2.10;;;24.70;86.10;;;;;;5027198;28;20052;-73
2023/08/16 00:46:17;;;;;;;5.18;2.25;;;24.70;86.00;;;;;;5056968;28;20076;-66
2023/08/16 00:48:43;;;;;;;5.18;2.60;;;24.80;86.00;;;;;;5052126;28;20044;-69
2023/08/16 00:51:09;;;;;;;3.80;2.17;;;24.40;85.80;;;;;;5067992;28;20088;-68
2023/08/16 00:53:35;;;;;;;5.72;2.10;;;24.30;85.70;;;;;;5066167;28;20037;-65
2023/08/16 00:56:01;;;;;;;6.57;2.20;;;24.50;85.80;;;;;;5044998;28;20055;-67
2023/08/16 00:58:27;;;;;;;4.10;1.70;;;24.60;85.80;;;;;;5033480;28;20048;-68
2023/08/16 01:00:52;;;;;;;5.68;2.15;;;24.40;85.80;;;;;;5023709;28;20562;-70
2023/08/16 01:03:18;;;;;;;6.45;2.13;;;24.50;85.80;;;;;;5060323;28;20111;-66
2023/08/16 01:05:44;;;;;;;5.07;1.95;;;24.40;85.60;;;;;;5033121;28;20064;-65
2023/08/16 01:08:10;;;;;;;5.13;2.17;;;24.40;88.80;;;;;;5052008;28;20120;-70
2023/08/16 01:11:19;;;;;;;3.83;2.17;;;24.70;85.90;;;;;;5061595;28;20048;-66
2023/08/16 01:14:12;;;;;;;4.53;1.92;;;24.60;84.70;;;;;;5030410;28;20089;-68
2023/08/16 01:16:38;;;;;;;;;;;24.60;84.70;;;;;;5048568;28;20049;-68
2023/08/16 01:19:08;;;;;;;3.55;1.90;;;24.40;86.10;;;;;;5036277;28;19950;-64
2023/08/16 01:21:34;;;;;;;3.03;1.92;;;24.40;85.90;;;;;;5037771;28;20083;-64
2023/08/16 01:24:13;;;;;;;3.65;1.92;;;24.40;88.30;;;;;;5054445;28;20095;-64
2023/08/16 01:26:39;;;;;;;3.67;1.98;;;24.20;84.50;;;;;;5053630;28;20045;-70
2023/08/16 01:29:05;;;;;;;3.75;2.20;;;24.60;85.80;;;;;;5035578;28;20122;-69
2023/08/16 01:31:32;;;;;;;3.55;1.88;;;24.50;85.90;;;;;;5023804;28;20049;-68
2023/08/16 01:33:59;;;;;;;4.32;2.17;;;24.40;85.80;;;;;;5030347;28;20088;-71
2023/08/16 01:36:25;;;;;;;5.32;2.20;;;24.40;85.60;;;;;;5050867;28;20049;-64
2023/08/16 01:38:52;;;;;;;5.55;2.15;;;24.10;85.70;;;;;;5044115;28;20060;-65
2023/08/16 01:41:33;;;;;;;4.72;2.03;;;24.40;85.70;;;;;;5061441;28;20113;-68
2023/08/16 01:43:59;;;;;;;4.32;1.75;;;24.50;84.50;;;;;;5024658;28;20042;-70
2023/08/16 01:46:25;;;;;;;4.53;2.03;;;24.40;85.60;;;;;;5040622;28;20040;-66
2023/08/16 01:48:51;;;;;;;4.32;2.33;;;24.50;85.60;;;;;;5064423;28;20060;-67
2023/08/16 01:51:17;;;;;;;4.45;2.28;;;24.40;85.80;;;;;;5012176;28;20084;-72
2023/08/16 01:53:43;;;;;;;6.18;2.03;;;24.40;85.60;;;;;;5058900;28;20158;-64
2023/08/16 01:56:08;;;;;;;3.80;2.10;;;24.20;85.50;;;;;;5048369;28;20068;-69
2023/08/16 01:58:34;;;;;;;3.67;1.83;;;24.20;85.50;;;;;;5036071;28;20038;-68
2023/08/16 02:01:00;;;;;;;3.80;1.90;;;24.20;85.50;;;;;;5057669;28;20512;-64
2023/08/16 02:03:26;;;;;;;3.33;1.83;;;24.20;85.50;;;;;;5065760;28;20421;-70
2023/08/16 02:05:52;;;;;;;3.42;2.08;;;24.30;85.50;;;;;;5035173;28;20168;-68
2023/08/16 02:08:18;;;;;;;5.53;2.22;;;24.50;85.60;;;;;;5035776;28;20041;-66
2023/08/16 02:10:44;;;;;;;4.30;2.05;;;24.20;85.40;;;;;;5040994;28;20470;-66
2023/08/16 02:13:10;;;;;;;3.97;2.03;;;24.00;88.60;;;;;;5090488;28;20048;-65
2023/08/16 02:15:36;;;;;;;5.45;2.13;;;24.10;85.50;;;;;;5047797;28;20079;-67
2023/08/16 02:18:02;;;;;;;3.88;2.00;;;24.60;85.50;;;;;;5040988;28;20531;-66
2023/08/16 02:20:28;;;;;;;3.75;2.15;;;24.10;85.00;;;;;;5045726;28;20057;-68
2023/08/16 02:22:53;;;;;;;4.43;1.80;;;24.20;85.30;;;;;;5050322;28;20040;-63
2023/08/16 02:25:19;;;;;;;4.30;2.08;;;24.10;85.20;;;;;;5055460;28;20182;-63
2023/08/16 02:27:45;;;;;;;4.53;2.08;;;24.20;88.10;;;;;;5052522;28;20055;-67
2023/08/16 02:30:11;;;;;;;3.70;2.05;;;24.10;85.00;;;;;;5066253;28;20052;-67
2023/08/16 02:32:37;;;;;;;5.35;2.20;;;24.20;88.40;;;;;;5040090;28;20044;-64
2023/08/16 02:35:03;;;;;;;2.72;1.80;;;24.10;85.30;;;;;;5049635;28;20049;-65
2023/08/16 02:37:29;;;;;;;3.17;1.88;;;23.90;84.80;;;;;;5020032;28;20174;-64
2023/08/16 02:39:55;;;;;;;4.80;2.20;;;24.20;85.20;;;;;;5071241;28;20494;-67
2023/08/16 02:42:21;;;;;;;4.50;2.05;;;24.20;85.10;;;;;;5068799;28;20035;-66
2023/08/16 02:44:47;;;;;;;4.55;2.10;;;24.00;85.10;;;;;;5057206;28;20037;-66
2023/08/16 02:47:13;;;;;;;4.57;2.00;;;24.30;85.30;;;;;;5019030;28;20056;-68
2023/08/16 02:49:39;;;;;;;3.42;1.95;;;24.00;85.20;;;;;;5012117;28;20048;-63
2023/08/16 02:52:05;;;;;;;3.65;2.00;;;24.10;85.10;;;;;;5032766;28;20041;-64
2023/08/16 02:54:30;;;;;;;3.92;2.20;;;24.00;85.10;;;;;;5036119;28;20048;-65
2023/08/16 02:56:56;;;;;;;4.78;2.50;;;24.40;85.30;;;;;;5056311;28;20036;-64
2023/08/16 02:59:22;;;;;;;5.38;2.20;;;23.90;84.90;;;;;;5048955;28;20041;-64
2023/08/16 03:01:48;;;;;;;4.38;2.10;;;24.20;88.00;;;;;;5019576;28;20055;-65
2023/08/16 03:04:15;;;;;;;4.20;2.30;;;24.30;85.20;;;;;;5036370;28;20045;-64
2023/08/16 03:06:41;;;;;;;4.00;2.10;;;24.00;85.10;;;;;;5037802;28;20469;-64
2023/08/16 03:09:06;;;;;;;3.22;2.00;;;24.10;85.00;;;;;;5069775;28;20048;-63
2023/08/16 03:11:32;;;;;;;4.57;2.05;;;24.20;85.00;;;;;;5053862;28;20510;-62
2023/08/16 03:13:58;;;;;;;5.53;2.58;;;24.00;84.90;;;;;;5054404;28;20037;-62
2023/08/16 03:16:24;;;;;;;4.32;2.20;;;24.10;85.00;;;;;;5047546;28;20053;-65
2023/08/16 03:18:49;;;;;;;3.58;2.10;;;24.00;84.70;;;;;;5058929;28;20732;-63
2023/08/16 03:21:15;;;;;;;3.55;1.95;;;24.30;85.10;;;;;;5053354;28;20061;-64
2023/08/16 03:23:41;;;;;;;4.35;2.40;;;24.20;85.10;;;;;;5054080;28;20079;-66
2023/08/16 03:26:07;;;;;;;4.82;2.10;;;24.00;84.80;;;;;;5053678;28;20045;-72
2023/08/16 03:28:32;;;;;;;5.82;2.42;;;23.80;84.80;;;;;;5044005;28;20036;-69
2023/08/16 03:30:58;;;;;;;4.97;2.28;;;23.90;84.90;;;;;;5053035;28;20119;-66
2023/08/16 03:33:24;;;;;;;4.75;2.20;;;24.00;84.80;;;;;;5042458;28;20041;-69
2023/08/16 03:35:50;;;;;;;3.65;1.95;;;23.90;84.90;;;;;;5064712;28;20049;-71
2023/08/16 03:38:15;;;;;;;3.40;1.80;;;24.20;85.10;;;;;;5043032;28;20041;-68
2023/08/16 03:40:41;;;;;;;3.50;2.00;;;24.20;87.90;;;;;;5041696;28;20053;-70
2023/08/16 03:43:07;;;;;;;3.08;2.00;;;24.20;85.00;;;;;;5053123;28;20049;-70
2023/08/16 03:45:33;;;;;;;2.70;1.80;;;24.00;84.80;;;;;;5035613;28;20049;-70
2023/08/16 03:47:58;;;;;;;4.50;2.13;;;24.10;85.00;;;;;;5052239;28;20115;-72
2023/08/16 03:50:24;;;;;;;2.90;1.75;;;23.80;84.90;;;;;;5041307;28;20536;-70
2023/08/16 03:52:50;;;;;;;4.20;2.20;;;24.00;84.80;;;;;;5038481;28;20044;-67
2023/08/16 03:55:16;;;;;;;4.05;1.83;;;23.90;84.70;;;;;;5073144;28;20048;-69
2023/08/16 03:57:42;;;;;;;3.97;2.08;;;24.00;87.40;;;;;;5055114;28;20046;-66
2023/08/16 04:00:11;;;;;;;2.88;1.80;;;24.10;84.80;;;;;;5040296;28;20053;-66
2023/08/16 04:02:37;;;;;;;3.55;1.90;;;24.20;84.60;;;;;;5038360;28;20048;-66
2023/08/16 04:05:11;;;;;;;3.97;2.25;;;23.80;84.80;;;;;;5038717;28;20075;-69
2023/08/16 04:07:38;;;;;;;2.50;1.55;;;23.60;86.90;;;;;;5041468;28;20058;-67
2023/08/16 04:10:04;;;;;;;5.63;1.80;;;24.00;84.80;;;;;;5024272;28;20055;-67
2023/08/16 04:12:30;;;;;;;3.33;2.00;;;24.00;84.60;;;;;;5043417;28;20052;-70
2023/08/16 04:14:56;;;;;;;3.60;1.80;;;23.90;84.60;;;;;;5034475;28;20053;-69
2023/08/16 04:17:22;;;;;;;4.18;1.90;;;23.60;87.70;;;;;;5036192;28;20087;-67
2023/08/16 04:19:48;;;;;;;4.45;1.88;;;23.70;84.50;;;;;;5044676;28;20056;-69
2023/08/16 04:22:13;;;;;;;3.13;1.50;;;24.00;84.50;;;;;;5007715;28;20483;-66
2023/08/16 04:24:39;;;;;;;3.45;1.70;;;24.10;84.70;;;;;;5051127;28;20051;-67
2023/08/16 04:27:05;;;;;;;2.38;1.50;;;23.70;84.50;;;;;;5034989;28;20142;-70
2023/08/16 04:29:31;;;;;;;3.40;1.63;;;23.80;85.20;;;;;;5052201;28;20052;-70
2023/08/16 04:31:57;;;;;;;2.38;1.60;;;23.90;84.60;;;;;;5050759;28;20399;-74
2023/08/16 04:34:23;;;;;;;2.67;1.40;;;23.60;84.40;;;;;;5020500;28;20049;-69
2023/08/16 04:36:49;;;;;;;2.20;1.40;;;23.60;84.40;;;;;;5031269;28;20060;-66
2023/08/16 04:39:14;;;;;;;1.75;1.20;;;24.00;85.20;;;;;;5015089;28;20038;-66
2023/08/16 04:41:40;;;;;;;1.55;1.27;;;24.10;84.70;;;;;;5030059;28;20053;-71
2023/08/16 04:44:06;;;;;;;1.40;1.17;;;23.80;84.30;;;;;;5015348;28;20045;-69
2023/08/16 04:46:32;;;;;;;1.65;1.27;;;23.70;87.00;;;;;;5031743;28;20042;-70
2023/08/16 04:48:57;;;;;;;2.47;1.38;;;23.60;87.20;;;;;;5032701;28;20068;-65
2023/08/16 04:51:23;;;;;;;2.63;1.45;;;24.10;84.60;;;;;;5050351;28;20462;-72
2023/08/16 04:53:49;;;;;;;2.20;1.35;;;23.70;87.30;;;;;;5049995;28;20041;-62
2023/08/16 04:56:15;;;;;;;2.20;1.50;;;23.80;84.40;;;;;;5034369;28;20053;-68
2023/08/16 04:58:40;;;;;;;2.92;1.45;;;23.90;84.40;;;;;;5029481;28;20124;-72
2023/08/16 05:01:06;;;;;;;2.03;1.25;;;24.00;84.50;;;;;;5052106;28;20076;-67
2023/08/16 05:03:32;;;;;;;2.25;1.48;;;23.90;87.20;;;;;;5031559;28;20047;-68
2023/08/16 05:06:02;;;;;;;3.42;1.60;;;24.10;84.50;;;;;;5040937;28;20053;-65
2023/08/16 05:08:28;;;;;;;1.80;1.40;;;24.20;84.90;;;;;;5021122;28;20567;-65
2023/08/16 05:10:55;;;;;;;2.10;1.35;;;24.10;84.60;;;;;;5054038;28;20051;-65
2023/08/16 05:13:21;;;;;;;2.85;1.58;;;24.20;84.60;;;;;;5037987;28;20106;-62
2023/08/16 05:15:47;;;;;;;2.95;1.40;;;24.30;84.00;;;;;;5034030;28;20056;-64
2023/08/16 05:18:13;;;;;;;2.63;1.75;;;24.30;84.00;;;;;;5060596;28;20101;-66
2023/08/16 05:20:39;;;;;;;2.47;1.60;;;24.40;83.90;;;;;;5082896;28;20440;-66
2023/08/16 05:23:04;;;;;;;3.42;1.90;;;24.30;83.70;;;;;;5074974;28;20064;-67
2023/08/16 05:25:30;;;;;;;2.80;1.63;;;24.70;83.80;;;;;;5067320;28;20057;-67
2023/08/16 05:27:58;;;;;;;3.50;1.95;;;24.70;83.40;;;;;;5017008;28;20030;-70
2023/08/16 05:30:28;;;;;;;3.08;1.70;;;25.00;83.80;;;;;;5020122;28;20183;-69
2023/08/16 05:32:56;;;;;;;3.78;1.90;;;24.50;83.40;;;;;;5007278;28;20391;-67
2023/08/16 05:35:22;;;;;;;2.90;1.70;;;24.60;83.10;;;;;;5048620;28;20372;-68
2023/08/16 05:37:50;;;;;;;3.33;1.40;;;24.90;83.20;;;;;;5006237;28;20487;-65
2023/08/16 05:40:16;;;;;;;2.65;1.52;;;25.10;83.10;;;;;;4998470;28;20061;-65
2023/08/16 05:42:42;;;;;;;2.70;1.40;;;25.10;82.70;;;;;;5018698;28;20375;-68
2023/08/16 05:45:08;;;;;;;2.55;1.25;;;25.40;82.70;;;;;;5039798;28;20041;-68
2023/08/16 05:47:34;;;;;;;1.77;1.33;;;25.40;82.20;;;;;;5063515;28;20038;-66
2023/08/16 05:49:59;;;;;;;1.65;1.20;;;25.50;82.20;;;;;;5032537;28;20052;-66
2023/08/16 05:52:26;;;;;;;1.88;1.27;;;25.60;82.20;;;;;;5034959;28;20045;-66
2023/08/16 05:54:52;;;;;;;3.28;1.20;;;25.70;82.30;;;;;;5014138;28;20053;-69
2023/08/16 05:57:18;;;;;;;2.45;1.30;;;25.80;81.70;;;;;;5002288;28;20041;-68
2023/08/16 05:59:43;;;;;;;2.10;1.20;;;25.90;81.70;;;;;;5034837;28;20075;-65
2023/08/16 06:02:09;;;;;;;2.40;1.30;;;25.90;81.30;;;;;;5064815;28;20036;-66
2023/08/16 06:04:35;;;;;;;2.38;1.10;;;26.10;81.40;;;;;;5055442;28;20398;-67
2023/08/16 06:07:02;;;;;;;1.92;1.27;;;25.90;81.00;;;;;;5054567;28;20116;-68
2023/08/16 06:09:28;;;;;;;1.98;1.20;;;26.20;81.50;;;;;;5053260;28;20462;-67
2023/08/16 06:11:55;;;;;;;3.25;1.20;;;26.20;80.70;;;;;;5061128;28;20411;-66
2023/08/16 06:14:20;;;;;;;2.33;1.25;;;26.20;80.90;;;;;;5075316;28;20049;-64
2023/08/16 06:16:46;;;;;;;3.05;1.38;;;26.30;80.70;;;;;;5072819;28;20052;-63
2023/08/16 06:19:13;;;;;;;2.97;1.30;;;26.40;80.80;;;;;;5045702;28;20103;-67
2023/08/16 06:21:39;;;;;;;2.35;1.30;;;26.30;80.70;;;;;;5053010;28;20091;-65
2023/08/16 06:24:06;;;;;;;2.70;1.20;;;26.60;80.70;;;;;;5045690;28;20052;-65
2023/08/16 06:26:31;;;;;;;3.75;1.35;;;26.50;80.10;;;;;;5051926;28;20489;-64
2023/08/16 06:28:58;;;;;;;3.10;1.38;;;26.60;80.20;;;;;;5049888;28;20041;-62
2023/08/16 06:31:24;;;;;;;2.72;1.10;;;26.80;80.20;;;;;;5031803;28;20056;-62
2023/08/16 06:33:49;;;;;;;1.88;1.20;;;26.70;79.90;;;;;;5057810;28;20084;-62
2023/08/16 06:36:15;;;;;;;2.65;1.20;;;26.90;79.90;;;;;;5021924;28;20667;-71
2023/08/16 06:38:41;;;;;;;4.57;1.60;;;26.80;79.60;;;;;;5049288;28;20515;-62
2023/08/16 06:41:07;;;;;;;1.92;1.27;;;26.80;79.40;;;;;;5040531;28;20139;-65
2023/08/16 06:43:32;;;;;;;2.72;1.30;;;27.00;79.60;;;;;;5025434;28;20048;-62
2023/08/16 06:45:58;;;;;;;2.30;1.27;;;26.80;79.20;;;;;;5038282;28;20046;-67
2023/08/16 06:48:24;;;;;;;2.13;1.30;;;26.90;79.30;;;;;;5025342;28;20049;-64
2023/08/16 06:50:50;;;;;;;2.85;1.45;;;27.00;79.30;;;;;;5022238;28;20063;-62
2023/08/16 06:53:16;;;;;;;2.97;1.38;;;27.00;79.30;;;;;;5016143;28;20037;-66
2023/08/16 06:55:41;;;;;;;4.25;1.70;;;27.20;79.20;;;;;;5029095;28;20102;-66
2023/08/16 06:58:07;;;;;;;3.63;1.50;;;27.10;79.30;;;;;;5025808;28;20103;-65
2023/08/16 07:00:33;;;;;;;4.10;1.60;;;27.00;79.00;;;;;;5043804;28;20144;-64
2023/08/16 07:03:02;;;;;;;4.43;1.70;;;27.10;79.40;;;;;;5043995;28;20883;-62
2023/08/16 07:05:28;;;;;;;5.88;1.77;;;26.80;79.20;;;;;;5034407;28;20052;-65
2023/08/16 07:07:54;;;;;;;3.80;1.60;;;26.90;79.30;;;;;;5015232;28;20033;-64
2023/08/16 07:10:19;;;;;;;2.85;1.55;;;27.00;79.40;;;;;;5038781;28;20647;-67
2023/08/16 07:12:46;;;;;;;4.32;1.92;;;26.90;79.20;;;;;;5061772;28;20125;-62
2023/08/16 07:15:11;;;;;;;3.85;1.55;;;27.00;79.30;;;;;;5033360;28;20060;-71
2023/08/16 07:17:38;;;;;;;3.45;1.65;;;27.00;79.20;;;;;;5045980;28;20490;-63
2023/08/16 07:20:07;;;;;;;3.65;1.77;;;27.00;79.70;;;;;;5029238;28;20156;-62
2023/08/16 07:22:36;;;;;;;2.78;1.50;;;26.90;78.90;;;;;;5050131;28;20049;-73
2023/08/16 07:25:02;;;;;;;3.63;1.70;;;27.10;79.50;;;;;;5053843;28;20049;-63
2023/08/16 07:27:28;;;;;;;2.67;1.33;;;27.00;79.40;;;;;;5053161;28;20041;-63
2023/08/16 07:29:53;;;;;;;5.22;1.60;;;27.10;79.10;;;;;;5048796;28;20486;-62
2023/08/16 07:32:20;;;;;;;3.83;1.60;;;27.00;79.60;;;;;;5042373;28;20064;-73
2023/08/16 07:34:45;;;;;;;3.55;1.50;;;27.40;79.40;;;;;;5054949;28;20487;-72
2023/08/16 07:37:13;;;;;;;3.08;1.40;;;27.10;79.10;;;;;;5051845;28;20633;-62
2023/08/16 07:39:39;;;;;;;2.88;1.45;;;27.10;79.20;;;;;;5051682;28;20041;-66
2023/08/16 07:42:08;;;;;;;3.95;1.70;;;27.20;78.90;;;;;;5028383;28;20049;-73
2023/08/16 07:44:34;;;;;;;3.65;1.60;;;27.60;77.90;;;;;;5048549;28;20080;-69
2023/08/16 07:47:00;;;;;;;2.30;1.48;;;27.50;79.10;;;;;;5024899;28;20044;-63
2023/08/16 07:49:26;;;;;;;4.35;1.67;;;27.60;79.20;;;;;;5047247;28;20620;-63
2023/08/16 07:51:55;;;;;;;3.55;1.58;;;27.50;78.80;;;;;;5040350;28;20049;-84
2023/08/16 07:54:22;;;;;;;4.78;2.05;;;27.80;79.00;;;;;;5030964;28;20045;-85
2023/08/16 07:56:47;;;;;;;4.18;1.70;;;27.50;78.70;;;;;;5058128;28;20052;-63
2023/08/16 07:59:13;;;;;;;6.57;2.00;;;27.70;78.10;;;;;;5041180;28;20483;-67
2023/08/16 08:01:43;;;;;;;14.32;2.65;;;27.50;78.80;;;;;;5022858;28;20045;-63
2023/08/16 08:04:09;;;;;;;9.15;2.70;;;27.30;77.00;;;;;;5051894;28;20487;-62
2023/08/16 08:06:35;;;;;;;5.55;2.65;;;27.50;78.20;;;;;;5022432;28;20059;-65
2023/08/16 08:09:02;;;;;;;6.15;2.83;;;27.50;78.40;;;;;;5021509;28;20052;-70
2023/08/16 08:11:28;;;;;;;7.07;2.20;;;27.30;78.20;;;;;;5044232;28;21667;-64
2023/08/16 08:13:54;;;;;;;6.15;2.35;;;27.40;78.40;;;;;;5005317;28;20186;-64
2023/08/16 08:16:19;;;;;;;9.50;3.00;;;27.20;78.10;;;;;;5014611;28;20076;-73
2023/08/16 08:18:45;;;;;;;7.30;2.55;;;27.30;77.90;;;;;;5037651;28;20487;-73
2023/08/16 08:21:11;;;;;;;7.82;2.50;;;27.30;77.80;;;;;;5039870;28;20041;-64
2023/08/16 08:23:38;;;;;;;6.28;2.10;;;27.50;77.80;;;;;;5031681;28;20073;-67
2023/08/16 08:26:03;;;;;;;7.07;2.28;;;27.40;78.20;;;;;;5021411;28;20049;-65
2023/08/16 08:28:32;;;;;;;8.18;2.80;;;27.40;78.00;;;;;;5038893;28;20041;-65
2023/08/16 08:31:01;;;;;;;10.45;3.30;;;27.20;77.80;;;;;;5036977;28;20106;-65
2023/08/16 08:33:27;;;;;;;6.65;2.55;;;27.00;78.10;;;;;;5035223;28;20046;-71
2023/08/16 08:35:53;;;;;;;6.97;2.10;;;27.00;77.70;;;;;;5017566;28;20098;-74
2023/08/16 08:38:19;;;;;;;5.57;2.20;;;26.80;77.50;;;;;;5017119;28;20148;-73
2023/08/16 08:40:44;;;;;;;9.70;3.08;;;26.80;77.80;;;;;;5038512;28;20303;-65
2023/08/16 08:43:11;;;;;;;5.97;2.20;;;26.80;78.00;;;;;;5039345;28;20041;-70
2023/08/16 08:45:36;;;;;;;7.47;2.00;;;26.80;78.10;;;;;;5023900;28;20510;-67
2023/08/16 08:48:03;;;;;;;7.85;2.20;;;26.40;77.60;;;;;;5031568;28;20117;-63
2023/08/16 08:50:28;;;;;;;8.18;2.30;;;26.40;77.30;;;;;;5038441;28;20045;-68
2023/08/16 08:53:00;;;;;;;12.32;2.75;;;26.60;77.90;;;;;;5033944;28;20045;-73
2023/08/16 08:55:28;;;;;;;8.38;2.35;;;26.40;76.70;;;;;;5016903;28;20053;-74
2023/08/16 08:57:55;;;;;;;17.50;2.70;;;26.60;78.40;;;;;;5034437;28;20572;-76
2023/08/16 09:00:21;;;;;;;11.68;2.92;;;26.50;78.20;;;;;;5056882;28;20145;-75
2023/08/16 09:02:49;;;;;;;18.40;3.08;;;26.70;78.10;;;;;;5025291;28;20044;-69
2023/08/16 09:05:15;;;;;;;11.18;2.53;;;27.00;78.50;;;;;;5028731;28;20609;-69
2023/08/16 09:07:41;;;;;;;11.95;3.03;;;26.80;77.80;;;;;;5020908;28;20135;-67
2023/08/16 09:10:09;;;;;;;9.27;2.60;;;27.10;78.00;;;;;;5037141;28;20040;-72
2023/08/16 09:12:36;;;;;;;11.00;2.92;;;27.20;77.80;;;;;;5063895;28;20449;-69
2023/08/16 09:15:03;;;;;;;8.52;2.60;;;27.10;77.80;;;;;;5055330;28;20049;-74
2023/08/16 09:17:29;;;;;;;8.02;2.70;;;27.30;77.60;;;;;;5055863;28;20062;-74
2023/08/16 09:19:55;;;;;;;7.95;2.60;;;27.10;77.80;;;;;;5052001;28;20048;-73
2023/08/16 09:22:20;;;;;;;8.23;2.58;;;27.20;77.80;;;;;;5053044;28;20045;-67
2023/08/16 09:24:48;;;;;;;10.13;2.95;;;27.30;77.90;;;;;;5047525;28;20044;-62
2023/08/16 09:27:14;;;;;;;8.25;2.88;;;27.30;77.80;;;;;;5029408;28;20058;-67
2023/08/16 09:29:40;;;;;;;8.10;2.35;;;27.40;77.80;;;;;;5026850;28;20046;-62
2023/08/16 09:32:07;;;;;;;6.40;2.53;;;27.30;77.80;;;;;;5025675;28;20072;-67
2023/08/16 09:34:33;;;;;;;6.30;2.38;;;27.30;77.90;;;;;;5017065;28;20057;-74
2023/08/16 09:37:02;;;;;;;10.20;2.55;;;27.40;77.70;;;;;;5051980;28;20036;-63
2023/08/16 09:39:28;;;;;;;26.48;3.10;;;27.50;78.00;;;;;;5034374;28;20044;-65
2023/08/16 09:41:54;;;;;;;42.50;4.88;;;27.30;77.20;;;;;;5046807;28;20068;-64
2023/08/16 09:44:21;;;;;;;13.20;2.88;;;27.50;77.30;;;;;;5048169;28;20045;-67
2023/08/16 09:46:47;;;;;;;12.18;2.83;;;27.30;77.40;;;;;;5032575;28;20037;-63
2023/08/16 09:49:13;;;;;;;10.23;2.65;;;27.30;77.40;;;;;;5042082;28;20085;-72
2023/08/16 09:51:40;;;;;;;9.30;2.50;;;27.30;77.70;;;;;;5030840;28;20648;-74
2023/08/16 09:54:13;;;;;;;5.72;2.40;;;27.00;77.70;;;;;;5032738;28;20045;-65
2023/08/16 09:56:39;;;;;;;10.43;2.40;;;27.00;78.00;;;;;;5025859;28;20053;-72
2023/08/16 09:59:08;;;;;;;8.32;2.10;;;27.10;77.70;;;;;;5010204;28;20056;-71
2023/08/16 10:01:35;;;;;;;9.35;2.50;;;26.90;78.10;;;;;;5036705;28;20038;-74
2023/08/16 10:04:02;;;;;;;6.30;2.10;;;27.20;77.90;;;;;;5019139;28;20054;-73
2023/08/16 10:06:30;;;;;;;4.13;1.63;;;27.00;77.80;;;;;;5017646;28;20057;-74
2023/08/16 10:08:56;;;;;;;6.63;2.30;;;27.00;78.30;;;;;;5021741;28;20061;-62
2023/08/16 10:11:26;;;;;;;7.00;2.28;;;26.90;77.80;;;;;;5022407;28;20048;-74
2023/08/16 10:13:52;;;;;;;4.65;1.98;;;26.80;78.20;;;;;;5060495;28;20053;-61
2023/08/16 10:16:19;;;;;;;5.40;2.00;;;27.00;78.00;;;;;;5043909;28;20137;-74
2023/08/16 10:18:46;;;;;;;4.90;1.90;;;26.80;78.00;;;;;;5036412;28;20045;-72
2023/08/16 10:21:15;;;;;;;4.07;1.70;;;27.00;78.50;;;;;;5053058;28;20090;-74
2023/08/16 10:23:41;;;;;;;5.25;1.90;;;26.80;78.50;;;;;;5035293;28;20052;-61
2023/08/16 10:26:15;;;;;;;4.28;1.83;;;26.90;78.30;;;;;;5034206;28;20100;-74
2023/08/16 10:28:49;;;;;;;4.97;1.80;;;26.70;78.90;;;;;;5041909;28;20048;-73
2023/08/16 10:31:17;;;;;;;5.15;2.40;;;26.80;78.90;;;;;;5052932;28;20599;-67
2023/08/16 10:33:44;;;;;;;5.32;2.08;;;26.80;78.90;;;;;;5042389;28;20103;-64
2023/08/16 10:36:11;;;;;;;5.68;1.90;;;26.40;78.60;;;;;;5027559;28;20546;-61
2023/08/16 10:38:37;;;;;;;4.53;1.60;;;26.80;79.00;;;;;;5040533;28;20044;-70
2023/08/16 10:41:09;;;;;;;6.28;2.00;;;26.70;78.80;;;;;;5024837;28;20045;-66
2023/08/16 10:43:35;;;;;;;4.22;1.70;;;26.50;78.80;;;;;;5032922;28;20152;-64
2023/08/16 10:46:01;;;;;;;3.92;1.80;;;26.80;78.90;;;;;;5053916;28;20132;-68
2023/08/16 10:48:33;;;;;;;4.10;1.60;;;26.70;78.70;;;;;;5037727;28;20049;-63
2023/08/16 10:51:02;;;;;;;3.97;1.50;;;26.80;79.20;;;;;;5020068;28;20045;-62
2023/08/16 10:53:28;;;;;;;4.43;1.60;;;26.90;79.30;;;;;;5038610;28;20633;-66
2023/08/16 10:55:57;;;;;;;5.65;2.10;;;26.60;78.70;;;;;;5041070;28;20048;-65
2023/08/16 10:58:24;;;;;;;6.45;1.98;;;26.80;79.00;;;;;;5045546;28;20049;-65
2023/08/16 11:00:57;;;;;;;5.22;1.65;;;26.90;79.20;;;;;;5037572;28;20387;-62
2023/08/16 11:03:33;;;;;;;4.50;1.42;;;26.80;79.40;;;;;;5043180;28;20054;-64
2023/08/16 11:06:02;;;;;;;9.80;1.75;;;26.80;82.40;;;;;;5015658;28;20057;-64
2023/08/16 11:08:31;;;;;;;4.47;1.88;;;26.90;79.40;;;;;;5047945;28;20045;-62
2023/08/16 11:10:58;;;;;;;4.28;1.50;;;27.00;79.80;;;;;;5038847;28;20041;-64
2023/08/16 11:13:24;;;;;;;3.90;1.70;;;26.70;79.00;;;;;;5034742;28;20068;-64
2023/08/16 11:15:50;;;;;;;5.35;1.40;;;26.70;78.80;;;;;;5034928;28;20507;-69
2023/08/16 11:18:26;;;;;;;5.55;1.60;;;26.90;78.70;;;;;;5014504;28;20761;-65
2023/08/16 11:20:52;;;;;;;5.82;1.60;;;26.90;79.30;;;;;;5024893;28;20046;-63
2023/08/16 11:23:18;;;;;;;4.85;1.88;;;27.10;79.10;;;;;;5023417;28;20132;-70
2023/08/16 11:25:44;;;;;;;6.03;2.00;;;26.70;78.80;;;;;;5035689;28;20148;-75
2023/08/16 11:28:10;;;;;;;6.28;1.85;;;27.00;78.90;;;;;;5050772;28;20053;-74
2023/08/16 11:30:36;;;;;;;6.47;1.80;;;27.00;78.70;;;;;;5033663;28;20048;-75
2023/08/16 11:33:02;;;;;;;4.47;1.73;;;27.00;78.70;;;;;;5055149;28;20040;-65
2023/08/16 11:35:28;;;;;;;6.40;1.70;;;26.90;78.40;;;;;;5037781;28;20057;-76
2023/08/16 11:37:54;;;;;;;6.80;2.00;;;27.00;78.40;;;;;;5016483;28;20048;-71
2023/08/16 11:40:23;;;;;;;6.18;1.85;;;27.20;78.60;;;;;;5037447;28;20049;-62
2023/08/16 11:42:50;;;;;;;4.88;1.45;;;26.90;77.30;;;;;;5023830;28;20044;-63
2023/08/16 11:45:22;;;;;;;5.00;1.55;;;26.90;78.40;;;;;;5003760;28;20041;-73
2023/08/16 11:47:54;;;;;;;4.38;1.63;;;27.00;76.70;;;;;;5042377;28;20056;-74
2023/08/16 11:50:24;;;;;;;3.13;1.48;;;26.90;78.10;;;;;;5048581;28;20045;-67
2023/08/16 11:53:00;;;;;;;3.40;1.50;;;27.10;76.60;;;;;;5036989;28;20080;-72
2023/08/16 11:55:28;;;;;;;3.85;1.55;;;26.80;76.80;;;;;;5033621;28;20132;-67
2023/08/16 11:57:54;;;;;;;3.47;1.40;;;26.90;78.00;;;;;;5050911;28;20430;-74
2023/08/16 12:00:29;;;;;;;2.70;1.42;;;26.80;77.50;;;;;;5025750;28;20103;-75
2023/08/16 12:02:56;;;;;;;5.55;1.50;;;26.70;77.60;;;;;;5053053;28;20045;-73
2023/08/16 12:05:23;;;;;;;2.63;1.30;;;27.00;77.90;;;;;;5028964;28;20069;-75
2023/08/16 12:07:52;;;;;;;5.03;1.60;;;26.90;77.60;;;;;;5050680;28;20060;-75
2023/08/16 12:10:26;;;;;;;3.42;1.40;;;27.00;78.00;;;;;;5027882;28;20041;-76
2023/08/16 12:12:53;;;;;;;1.92;1.10;;;27.20;78.00;;;;;;5015958;28;20053;-61
2023/08/16 12:15:21;;;;;;;4.15;1.40;;;27.00;77.90;;;;;;5015883;28;20060;-61
2023/08/16 12:17:47;;;;;;;3.85;1.40;;;27.10;78.10;;;;;;5014497;28;20061;-61
2023/08/16 12:20:13;;;;;;;4.30;1.50;;;27.00;77.40;;;;;;5035008;28;20059;-61
2023/08/16 12:22:39;;;;;;;2.90;1.30;;;27.20;77.80;;;;;;5033750;28;20056;-76
2023/08/16 12:25:05;;;;;;;2.58;1.20;;;27.30;77.90;;;;;;5059568;28;20045;-76
2023/08/16 12:27:31;;;;;;;2.45;1.20;;;27.40;77.80;;;;;;5050124;28;20136;-76
2023/08/16 12:29:57;;;;;;;4.20;1.40;;;27.20;77.80;;;;;;5014021;28;20136;-76
2023/08/16 12:32:23;;;;;;;5.85;2.00;;;27.00;77.60;;;;;;5023079;28;20044;-72
2023/08/16 12:34:48;;;;;;;3.97;1.50;;;27.10;77.40;;;;;;5053033;28;20114;-61
2023/08/16 12:37:14;;;;;;;3.63;1.42;;;27.10;77.50;;;;;;5049152;28;20080;-61
2023/08/16 12:39:40;;;;;;;3.20;1.20;;;27.20;77.60;;;;;;5052555;28;20059;-60
2023/08/16 12:42:06;;;;;;;3.40;1.25;;;27.20;77.50;;;;;;5039999;28;20044;-64